createdAt,value
2019-01-08T00:00:04.530Z,2.39
2019-01-08T00:00:08.745Z,2.38
2019-01-08T00:00:12.853Z,2.38
2019-01-08T00:00:17.129Z,2.38
2019-01-08T00:00:21.324Z,2.38
2019-01-08T00:00:25.635Z,2.38
2019-01-08T00:00:29.929Z,2.38
2019-01-08T00:00:34.224Z,2.38
2019-01-08T00:00:38.519Z,2.38
2019-01-08T00:00:42.814Z,2.39
2019-01-08T00:00:47.104Z,2.38
2019-01-08T00:00:51.393Z,2.39
2019-01-08T00:00:55.681Z,2.39
2019-01-08T00:01:00.065Z,2.39
2019-01-08T00:01:04.374Z,2.39
2019-01-08T00:01:08.674Z,2.39
2019-01-08T00:01:12.970Z,2.4
2019-01-08T00:01:17.273Z,2.39
2019-01-08T00:01:21.565Z,2.39
2019-01-08T00:01:25.867Z,2.41
2019-01-08T00:01:30.065Z,2.4
2019-01-08T00:01:34.367Z,2.4
2019-01-08T00:01:38.664Z,2.41
2019-01-08T00:01:42.956Z,2.41
2019-01-08T00:01:47.249Z,2.41
2019-01-08T00:01:51.445Z,2.42
2019-01-08T00:01:55.738Z,2.42
2019-01-08T00:02:00.036Z,2.42
2019-01-08T00:02:04.554Z,2.41
2019-01-08T00:02:08.843Z,2.43
2019-01-08T00:02:13.138Z,2.43
2019-01-08T00:02:17.429Z,2.42
2019-01-08T00:02:21.718Z,2.43
2019-01-08T00:02:25.927Z,2.43
2019-01-08T00:02:30.227Z,2.43
2019-01-08T00:02:34.519Z,2.43
2019-01-08T00:02:38.812Z,2.43
2019-01-08T00:02:43.115Z,2.43
2019-01-08T00:02:47.325Z,2.43
2019-01-08T00:02:51.627Z,2.44
2019-01-08T00:02:55.915Z,2.44
2019-01-08T00:03:00.216Z,2.44
2019-01-08T00:03:04.413Z,2.46
2019-01-08T00:03:08.702Z,2.46
2019-01-08T00:03:13.001Z,2.47
2019-01-08T00:03:17.294Z,2.45
2019-01-08T00:03:21.487Z,2.47
2019-01-08T00:03:25.778Z,2.46
2019-01-08T00:03:30.072Z,2.47
2019-01-08T00:03:34.481Z,2.46
2019-01-08T00:03:38.845Z,2.46
2019-01-08T00:03:43.041Z,2.47
2019-01-08T00:03:47.329Z,2.48
2019-01-08T00:03:51.625Z,2.46
2019-01-08T00:03:55.849Z,2.48
2019-01-08T00:04:00.137Z,2.49
2019-01-08T00:04:04.353Z,2.48
2019-01-08T00:04:08.643Z,2.48
2019-01-08T00:04:12.934Z,2.47
2019-01-08T00:04:17.326Z,2.48
2019-01-08T00:04:21.613Z,2.49
2019-01-08T00:04:25.921Z,2.48
2019-01-08T00:04:30.214Z,2.49
2019-01-08T00:04:34.502Z,2.49
2019-01-08T00:04:38.700Z,2.49
2019-01-08T00:04:43.075Z,2.49
2019-01-08T00:04:47.365Z,2.49
2019-01-08T00:04:51.666Z,2.49
2019-01-08T00:04:55.793Z,2.5
2019-01-08T00:05:00.090Z,2.5
2019-01-08T00:05:04.481Z,2.49
2019-01-08T00:05:08.779Z,2.5
2019-01-08T00:05:13.069Z,2.51
2019-01-08T00:05:17.354Z,2.51
2019-01-08T00:05:21.547Z,2.51
2019-01-08T00:05:25.839Z,2.52
2019-01-08T00:05:30.036Z,2.51
2019-01-08T00:05:34.335Z,2.52
2019-01-08T00:05:38.530Z,2.52
2019-01-08T00:05:42.754Z,2.52
2019-01-08T00:05:47.060Z,2.53
2019-01-08T00:05:51.346Z,2.53
2019-01-08T00:05:55.646Z,2.53
2019-01-08T00:05:59.859Z,2.53
2019-01-08T00:06:03.957Z,2.53
2019-01-08T00:06:08.250Z,2.54
2019-01-08T00:06:12.544Z,2.54
2019-01-08T00:06:16.842Z,2.53
2019-01-08T00:06:21.136Z,2.52
2019-01-08T00:06:25.526Z,2.54
2019-01-08T00:06:29.826Z,2.53
2019-01-08T00:06:34.122Z,2.53
2019-01-08T00:06:38.322Z,2.53
2019-01-08T00:06:42.507Z,2.51
2019-01-08T00:06:46.796Z,2.52
2019-01-08T00:06:51.104Z,2.53
2019-01-08T00:06:55.398Z,2.52
2019-01-08T00:06:59.775Z,2.52
2019-01-08T00:07:04.064Z,2.53
2019-01-08T00:07:08.369Z,2.53
2019-01-08T00:07:12.742Z,2.53
2019-01-08T00:07:18.432Z,2.53
2019-01-08T00:07:22.728Z,2.52
2019-01-08T00:07:27.019Z,2.53
2019-01-08T00:07:31.318Z,2.53
2019-01-08T00:07:35.423Z,2.53
2019-01-08T00:07:39.715Z,2.53
2019-01-08T00:07:44.006Z,2.52
2019-01-08T00:07:48.300Z,2.53
2019-01-08T00:07:52.590Z,2.53
2019-01-08T00:07:56.785Z,2.53
2019-01-08T00:08:01.160Z,2.54
2019-01-08T00:08:05.465Z,2.53
2019-01-08T00:08:09.774Z,2.54
2019-01-08T00:08:14.068Z,2.54
2019-01-08T00:08:18.260Z,2.54
2019-01-08T00:08:22.459Z,2.54
2019-01-08T00:08:26.744Z,2.55
2019-01-08T00:08:31.041Z,2.55
2019-01-08T00:08:35.333Z,2.55
2019-01-08T00:08:39.527Z,2.55
2019-01-08T00:08:43.716Z,2.55
2019-01-08T00:08:48.010Z,2.56
2019-01-08T00:08:52.302Z,2.55
2019-01-08T00:08:56.593Z,2.55
2019-01-08T00:09:00.792Z,2.56
2019-01-08T00:09:05.008Z,2.56
2019-01-08T00:09:09.261Z,2.55
2019-01-08T00:09:13.559Z,2.55
2019-01-08T00:09:17.850Z,2.56
2019-01-08T00:09:22.198Z,2.55
2019-01-08T00:09:26.503Z,2.55
2019-01-08T00:09:30.704Z,2.56
2019-01-08T00:09:35.008Z,2.56
2019-01-08T00:09:39.308Z,2.55
2019-01-08T00:09:43.594Z,2.56
2019-01-08T00:09:47.791Z,2.55
2019-01-08T00:09:51.996Z,2.56
2019-01-08T00:09:56.197Z,2.56
2019-01-08T00:10:00.612Z,2.56
2019-01-08T00:10:04.878Z,2.56
2019-01-08T00:10:09.166Z,2.56
2019-01-08T00:10:13.459Z,2.56
2019-01-08T00:10:17.755Z,2.57
2019-01-08T00:10:22.050Z,2.57
2019-01-08T00:10:26.349Z,2.57
2019-01-08T00:10:30.645Z,2.57
2019-01-08T00:10:34.833Z,2.56
2019-01-08T00:10:39.129Z,2.58
2019-01-08T00:10:43.329Z,2.57
2019-01-08T00:10:47.621Z,2.58
2019-01-08T00:10:51.916Z,2.57
2019-01-08T00:10:56.210Z,2.58
2019-01-08T00:11:00.405Z,2.58
2019-01-08T00:11:04.701Z,2.58
2019-01-08T00:11:08.999Z,2.58
2019-01-08T00:11:13.288Z,2.59
2019-01-08T00:11:17.591Z,2.6
2019-01-08T00:11:21.880Z,2.6
2019-01-08T00:11:26.173Z,2.6
2019-01-08T00:11:30.368Z,2.6
2019-01-08T00:11:34.564Z,2.61
2019-01-08T00:11:38.660Z,2.61
2019-01-08T00:11:42.874Z,2.61
2019-01-08T00:11:47.083Z,2.61
2019-01-08T00:11:51.190Z,2.61
2019-01-08T00:11:55.488Z,2.61
2019-01-08T00:11:59.781Z,2.62
2019-01-08T00:12:04.078Z,2.61
2019-01-08T00:12:08.176Z,2.62
2019-01-08T00:12:12.469Z,2.62
2019-01-08T00:12:16.767Z,2.62
2019-01-08T00:12:21.054Z,2.62
2019-01-08T00:12:25.262Z,2.61
2019-01-08T00:12:29.558Z,2.62
2019-01-08T00:12:33.869Z,2.62
2019-01-08T00:12:38.157Z,2.62
2019-01-08T00:12:42.451Z,2.61
2019-01-08T00:12:46.745Z,2.63
2019-01-08T00:12:50.941Z,2.62
2019-01-08T00:12:55.136Z,2.62
2019-01-08T00:12:59.430Z,2.6
2019-01-08T00:13:03.621Z,2.62
2019-01-08T00:13:07.817Z,2.61
2019-01-08T00:13:12.106Z,2.61
2019-01-08T00:13:16.398Z,2.62
2019-01-08T00:13:20.688Z,2.62
2019-01-08T00:13:24.996Z,2.62
2019-01-08T00:13:29.305Z,2.61
2019-01-08T00:13:33.601Z,2.62
2019-01-08T00:13:37.615Z,2.63
2019-01-08T00:13:41.915Z,2.62
2019-01-08T00:13:46.214Z,2.63
2019-01-08T00:13:50.409Z,2.63
2019-01-08T00:13:54.701Z,2.62
2019-01-08T00:13:58.873Z,2.63
2019-01-08T00:14:03.171Z,2.63
2019-01-08T00:14:07.570Z,2.63
2019-01-08T00:14:11.758Z,2.64
2019-01-08T00:14:16.054Z,2.63
2019-01-08T00:14:20.245Z,2.63
2019-01-08T00:14:24.435Z,2.64
2019-01-08T00:14:28.730Z,2.63
2019-01-08T00:14:33.032Z,2.63
2019-01-08T00:14:37.325Z,2.64
2019-01-08T00:14:41.618Z,2.64
2019-01-08T00:14:45.810Z,2.65
2019-01-08T00:14:50.001Z,2.64
2019-01-08T00:14:54.291Z,2.64
2019-01-08T00:14:58.586Z,2.64
2019-01-08T00:15:02.889Z,2.64
2019-01-08T00:15:07.195Z,2.65
2019-01-08T00:15:11.493Z,2.65
2019-01-08T00:15:15.787Z,2.66
2019-01-08T00:15:19.890Z,2.65
2019-01-08T00:15:24.090Z,2.66
2019-01-08T00:15:28.288Z,2.66
2019-01-08T00:15:32.485Z,2.66
2019-01-08T00:15:36.789Z,2.66
2019-01-08T00:15:41.089Z,2.66
2019-01-08T00:15:45.291Z,2.66
2019-01-08T00:15:49.586Z,2.68
2019-01-08T00:15:53.794Z,2.67
2019-01-08T00:15:58.098Z,2.66
2019-01-08T00:16:02.391Z,2.67
2019-01-08T00:16:06.682Z,2.67
2019-01-08T00:16:10.973Z,2.68
2019-01-08T00:16:15.268Z,2.68
2019-01-08T00:16:19.564Z,2.68
2019-01-08T00:16:23.849Z,2.68
2019-01-08T00:16:28.137Z,2.69
2019-01-08T00:16:32.424Z,2.68
2019-01-08T00:16:36.717Z,2.69
2019-01-08T00:16:41.013Z,2.69
2019-01-08T00:16:45.303Z,2.69
2019-01-08T00:16:49.594Z,2.7
2019-01-08T00:16:53.787Z,2.69
2019-01-08T00:16:58.075Z,2.69
2019-01-08T00:17:02.367Z,2.69
2019-01-08T00:17:06.559Z,2.7
2019-01-08T00:17:10.854Z,2.69
2019-01-08T00:17:15.145Z,2.69
2019-01-08T00:17:19.450Z,2.7
2019-01-08T00:17:23.551Z,2.7
2019-01-08T00:17:27.925Z,2.69
2019-01-08T00:17:32.117Z,2.69
2019-01-08T00:17:36.311Z,2.7
2019-01-08T00:17:40.605Z,2.7
2019-01-08T00:17:44.700Z,2.71
2019-01-08T00:17:48.857Z,2.7
2019-01-08T00:17:53.151Z,2.7
2019-01-08T00:17:57.464Z,2.7
2019-01-08T00:18:01.567Z,2.71
2019-01-08T00:18:05.760Z,2.71
2019-01-08T00:18:10.060Z,2.71
2019-01-08T00:18:14.357Z,2.71
2019-01-08T00:18:18.561Z,2.71
2019-01-08T00:18:22.755Z,2.71
2019-01-08T00:18:26.855Z,2.71
2019-01-08T00:18:31.052Z,2.72
2019-01-08T00:18:35.423Z,2.72
2019-01-08T00:18:39.714Z,2.71
2019-01-08T00:18:44.097Z,2.72
2019-01-08T00:18:48.391Z,2.73
2019-01-08T00:18:52.683Z,2.74
2019-01-08T00:18:59.031Z,2.71
2019-01-08T00:19:03.455Z,2.72
2019-01-08T00:19:07.757Z,2.73
2019-01-08T00:19:12.087Z,2.72
2019-01-08T00:19:16.375Z,2.72
2019-01-08T00:19:20.675Z,2.71
2019-01-08T00:19:24.972Z,2.71
2019-01-08T00:19:29.265Z,2.73
2019-01-08T00:19:33.559Z,2.72
2019-01-08T00:19:37.861Z,2.71
2019-01-08T00:19:42.151Z,2.71
2019-01-08T00:19:46.447Z,2.71
2019-01-08T00:19:50.825Z,2.71
2019-01-08T00:19:55.025Z,2.71
2019-01-08T00:19:59.122Z,2.71
2019-01-08T00:20:03.337Z,2.71
2019-01-08T00:20:07.646Z,2.7
2019-01-08T00:20:11.844Z,2.7
2019-01-08T00:20:16.135Z,2.71
2019-01-08T00:20:20.428Z,2.7
2019-01-08T00:20:24.726Z,2.7
2019-01-08T00:20:29.028Z,2.7
2019-01-08T00:20:33.317Z,2.7
2019-01-08T00:20:37.615Z,2.7
2019-01-08T00:20:41.907Z,2.7
2019-01-08T00:20:46.107Z,2.71
2019-01-08T00:20:50.396Z,2.7
2019-01-08T00:20:54.605Z,2.69
2019-01-08T00:20:58.900Z,2.69
2019-01-08T00:21:03.186Z,2.7
2019-01-08T00:21:07.397Z,2.69
2019-01-08T00:21:11.598Z,2.7
2019-01-08T00:21:15.702Z,2.69
2019-01-08T00:21:19.994Z,2.69
2019-01-08T00:21:24.189Z,2.7
2019-01-08T00:21:28.482Z,2.69
2019-01-08T00:21:32.772Z,2.69
2019-01-08T00:21:37.059Z,2.71
2019-01-08T00:21:41.258Z,2.7
2019-01-08T00:21:45.453Z,2.71
2019-01-08T00:21:49.789Z,2.7
2019-01-08T00:21:54.089Z,2.7
2019-01-08T00:21:58.382Z,2.7
2019-01-08T00:22:02.675Z,2.7
2019-01-08T00:22:06.873Z,2.71
2019-01-08T00:22:11.159Z,2.71
2019-01-08T00:22:15.449Z,2.71
2019-01-08T00:22:19.741Z,2.71
2019-01-08T00:22:24.039Z,2.7
2019-01-08T00:22:28.326Z,2.71
2019-01-08T00:22:32.520Z,2.71
2019-01-08T00:22:36.720Z,2.71
2019-01-08T00:22:41.021Z,2.72
2019-01-08T00:22:45.312Z,2.71
2019-01-08T00:22:49.600Z,2.71
2019-01-08T00:22:53.887Z,2.71
2019-01-08T00:22:58.081Z,2.72
2019-01-08T00:23:02.371Z,2.71
2019-01-08T00:23:06.577Z,2.71
2019-01-08T00:23:10.889Z,2.71
2019-01-08T00:23:15.181Z,2.72
2019-01-08T00:23:19.371Z,2.71
2019-01-08T00:23:23.673Z,2.73
2019-01-08T00:23:27.973Z,2.7
2019-01-08T00:23:32.166Z,2.7
2019-01-08T00:23:36.461Z,2.71
2019-01-08T00:23:40.757Z,2.7
2019-01-08T00:23:44.963Z,2.7
2019-01-08T00:23:49.153Z,2.7
2019-01-08T00:23:53.443Z,2.67
2019-01-08T00:23:57.735Z,2.68
2019-01-08T00:24:01.942Z,2.66
2019-01-08T00:24:06.236Z,2.67
2019-01-08T00:24:10.534Z,2.67
2019-01-08T00:24:14.832Z,2.68
2019-01-08T00:24:19.136Z,2.68
2019-01-08T00:24:23.425Z,2.67
2019-01-08T00:24:27.530Z,2.66
2019-01-08T00:24:31.821Z,2.66
2019-01-08T00:24:36.145Z,2.67
2019-01-08T00:24:40.363Z,2.66
2019-01-08T00:24:44.655Z,2.66
2019-01-08T00:24:48.938Z,2.66
2019-01-08T00:24:53.136Z,2.66
2019-01-08T00:24:57.437Z,2.65
2019-01-08T00:25:01.726Z,2.65
2019-01-08T00:25:06.020Z,2.64
2019-01-08T00:25:10.310Z,2.66
2019-01-08T00:25:14.405Z,2.64
2019-01-08T00:25:18.702Z,2.65
2019-01-08T00:25:22.987Z,2.64
2019-01-08T00:25:27.078Z,2.65
2019-01-08T00:25:31.456Z,2.64
2019-01-08T00:25:35.743Z,2.64
2019-01-08T00:25:39.934Z,2.63
2019-01-08T00:25:44.130Z,2.63
2019-01-08T00:25:48.237Z,2.63
2019-01-08T00:25:52.533Z,2.63
2019-01-08T00:25:56.835Z,2.62
2019-01-08T00:26:01.122Z,2.62
2019-01-08T00:26:05.402Z,2.62
2019-01-08T00:26:09.697Z,2.62
2019-01-08T00:26:13.895Z,2.62
2019-01-08T00:26:18.192Z,2.62
2019-01-08T00:26:22.393Z,2.63
2019-01-08T00:26:26.681Z,2.62
2019-01-08T00:26:30.976Z,2.62
2019-01-08T00:26:35.181Z,2.62
2019-01-08T00:26:39.510Z,2.61
2019-01-08T00:26:43.703Z,2.61
2019-01-08T00:26:48.001Z,2.61
2019-01-08T00:26:52.301Z,2.61
2019-01-08T00:26:56.599Z,2.61
2019-01-08T00:27:00.793Z,2.6
2019-01-08T00:27:05.084Z,2.61
2019-01-08T00:27:09.289Z,2.6
2019-01-08T00:27:13.580Z,2.6
2019-01-08T00:27:17.778Z,2.6
2019-01-08T00:27:22.072Z,2.6
2019-01-08T00:27:26.270Z,2.6
2019-01-08T00:27:30.575Z,2.59
2019-01-08T00:27:34.865Z,2.6
2019-01-08T00:27:39.157Z,2.61
2019-01-08T00:27:43.457Z,2.6
2019-01-08T00:27:47.755Z,2.6
2019-01-08T00:27:52.051Z,2.59
2019-01-08T00:27:56.341Z,2.6
2019-01-08T00:28:00.439Z,2.6
2019-01-08T00:28:04.732Z,2.6
2019-01-08T00:28:09.021Z,2.6
2019-01-08T00:28:13.215Z,2.6
2019-01-08T00:28:17.508Z,2.6
2019-01-08T00:28:21.850Z,2.59
2019-01-08T00:28:26.137Z,2.59
2019-01-08T00:28:30.432Z,2.6
2019-01-08T00:28:42.853Z,2.6
2019-01-08T00:28:47.331Z,2.6
2019-01-08T00:28:51.621Z,2.6
2019-01-08T00:28:55.921Z,2.61
2019-01-08T00:29:00.210Z,2.59
2019-01-08T00:29:04.514Z,2.61
2019-01-08T00:29:08.710Z,2.61
2019-01-08T00:29:12.997Z,2.61
2019-01-08T00:29:17.376Z,2.61
2019-01-08T00:29:21.668Z,2.62
2019-01-08T00:29:25.867Z,2.62
2019-01-08T00:29:30.156Z,2.61
2019-01-08T00:29:34.352Z,2.61
2019-01-08T00:29:38.450Z,2.61
2019-01-08T00:29:42.551Z,2.62
2019-01-08T00:29:46.656Z,2.61
2019-01-08T00:29:50.951Z,2.61
2019-01-08T00:29:55.254Z,2.61
2019-01-08T00:29:59.451Z,2.62
2019-01-08T00:30:03.648Z,2.62
2019-01-08T00:30:07.950Z,2.62
2019-01-08T00:30:12.333Z,2.62
2019-01-08T00:30:16.642Z,2.61
2019-01-08T00:30:20.845Z,2.62
2019-01-08T00:30:25.150Z,2.62
2019-01-08T00:30:29.443Z,2.61
2019-01-08T00:30:33.761Z,2.62
2019-01-08T00:30:38.052Z,2.61
2019-01-08T00:30:42.252Z,2.62
2019-01-08T00:30:46.441Z,2.61
2019-01-08T00:30:50.727Z,2.61
2019-01-08T00:30:55.027Z,2.61
2019-01-08T00:30:59.310Z,2.61
2019-01-08T00:31:03.560Z,2.6
2019-01-08T00:31:07.862Z,2.6
2019-01-08T00:31:12.163Z,2.62
2019-01-08T00:31:16.366Z,2.62
2019-01-08T00:31:20.658Z,2.62
2019-01-08T00:31:24.848Z,2.61
2019-01-08T00:31:29.151Z,2.61
2019-01-08T00:31:33.439Z,2.62
2019-01-08T00:31:37.735Z,2.63
2019-01-08T00:31:42.028Z,2.62
2019-01-08T00:31:46.320Z,2.62
2019-01-08T00:31:50.663Z,2.62
2019-01-08T00:31:54.962Z,2.62
2019-01-08T00:31:59.257Z,2.62
2019-01-08T00:32:03.453Z,2.63
2019-01-08T00:32:07.751Z,2.62
2019-01-08T00:32:12.044Z,2.62
2019-01-08T00:32:16.334Z,2.63
2019-01-08T00:32:20.636Z,2.63
2019-01-08T00:32:24.932Z,2.64
2019-01-08T00:32:29.231Z,2.64
2019-01-08T00:32:33.424Z,2.64
2019-01-08T00:32:37.712Z,2.65
2019-01-08T00:32:42.001Z,2.65
2019-01-08T00:32:46.293Z,2.65
2019-01-08T00:32:50.579Z,2.64
2019-01-08T00:32:54.871Z,2.65
2019-01-08T00:32:59.162Z,2.65
2019-01-08T00:33:03.458Z,2.65
2019-01-08T00:33:07.753Z,2.66
2019-01-08T00:33:12.039Z,2.66
2019-01-08T00:33:16.237Z,2.66
2019-01-08T00:33:20.428Z,2.67
2019-01-08T00:33:24.719Z,2.67
2019-01-08T00:33:29.004Z,2.67
2019-01-08T00:33:33.335Z,2.67
2019-01-08T00:33:37.627Z,2.67
2019-01-08T00:33:41.997Z,2.67
2019-01-08T00:33:46.290Z,2.67
2019-01-08T00:33:50.587Z,2.67
2019-01-08T00:33:54.883Z,2.67
2019-01-08T00:33:59.186Z,2.67
2019-01-08T00:34:03.490Z,2.67
2019-01-08T00:34:07.776Z,2.68
2019-01-08T00:34:11.964Z,2.67
2019-01-08T00:34:16.256Z,2.68
2019-01-08T00:34:20.544Z,2.68
2019-01-08T00:34:24.830Z,2.67
2019-01-08T00:34:29.119Z,2.67
2019-01-08T00:34:33.462Z,2.68
2019-01-08T00:34:37.753Z,2.68
2019-01-08T00:34:41.951Z,2.68
2019-01-08T00:34:46.243Z,2.67
2019-01-08T00:34:50.442Z,2.68
2019-01-08T00:34:54.643Z,2.68
2019-01-08T00:34:58.937Z,2.68
2019-01-08T00:35:03.227Z,2.68
2019-01-08T00:35:07.515Z,2.68
2019-01-08T00:35:11.711Z,2.68
2019-01-08T00:35:16.004Z,2.67
2019-01-08T00:35:20.299Z,2.68
2019-01-08T00:35:24.498Z,2.68
2019-01-08T00:35:28.790Z,2.69
2019-01-08T00:35:33.080Z,2.68
2019-01-08T00:35:37.373Z,2.69
2019-01-08T00:35:41.677Z,2.69
2019-01-08T00:35:45.969Z,2.69
2019-01-08T00:35:50.262Z,2.69
2019-01-08T00:35:54.356Z,2.69
2019-01-08T00:35:58.590Z,2.69
2019-01-08T00:36:02.690Z,2.7
2019-01-08T00:36:07.008Z,2.7
2019-01-08T00:36:11.293Z,2.7
2019-01-08T00:36:15.598Z,2.7
2019-01-08T00:36:19.889Z,2.7
2019-01-08T00:36:24.253Z,2.7
2019-01-08T00:36:28.550Z,2.71
2019-01-08T00:36:32.849Z,2.71
2019-01-08T00:36:37.137Z,2.71
2019-01-08T00:36:41.424Z,2.71
2019-01-08T00:36:45.715Z,2.71
2019-01-08T00:36:50.006Z,2.7
2019-01-08T00:36:54.302Z,2.72
2019-01-08T00:36:58.620Z,2.71
2019-01-08T00:37:02.918Z,2.72
2019-01-08T00:37:07.207Z,2.72
2019-01-08T00:37:11.395Z,2.72
2019-01-08T00:37:15.690Z,2.73
2019-01-08T00:37:19.987Z,2.73
2019-01-08T00:37:24.277Z,2.73
2019-01-08T00:37:28.472Z,2.73
2019-01-08T00:37:32.750Z,2.74
2019-01-08T00:37:36.947Z,2.74
2019-01-08T00:37:41.244Z,2.74
2019-01-08T00:37:45.542Z,2.75
2019-01-08T00:37:49.832Z,2.75
2019-01-08T00:37:54.128Z,2.75
2019-01-08T00:37:58.430Z,2.75
2019-01-08T00:38:02.745Z,2.76
2019-01-08T00:38:07.038Z,2.77
2019-01-08T00:38:11.329Z,2.76
2019-01-08T00:38:15.621Z,2.77
2019-01-08T00:38:19.912Z,2.77
2019-01-08T00:38:24.207Z,2.77
2019-01-08T00:38:28.573Z,2.77
2019-01-08T00:38:32.865Z,2.77
2019-01-08T00:38:37.163Z,2.78
2019-01-08T00:38:41.450Z,2.78
2019-01-08T00:38:45.645Z,2.77
2019-01-08T00:38:49.941Z,2.77
2019-01-08T00:38:54.137Z,2.78
2019-01-08T00:38:58.436Z,2.78
2019-01-08T00:39:02.655Z,2.79
2019-01-08T00:39:06.843Z,2.79
2019-01-08T00:39:11.035Z,2.78
2019-01-08T00:39:15.331Z,2.8
2019-01-08T00:39:19.632Z,2.79
2019-01-08T00:39:23.919Z,2.8
2019-01-08T00:39:28.213Z,2.8
2019-01-08T00:39:32.405Z,2.79
2019-01-08T00:39:36.607Z,2.8
2019-01-08T00:39:40.802Z,2.81
2019-01-08T00:39:45.095Z,2.8
2019-01-08T00:39:49.419Z,2.8
2019-01-08T00:39:53.719Z,2.81
2019-01-08T00:39:58.012Z,2.8
2019-01-08T00:40:02.445Z,2.8
2019-01-08T00:40:06.641Z,2.81
2019-01-08T00:40:10.934Z,2.8
2019-01-08T00:40:15.134Z,2.79
2019-01-08T00:40:19.331Z,2.8
2019-01-08T00:40:23.709Z,2.79
2019-01-08T00:40:28.002Z,2.8
2019-01-08T00:40:32.292Z,2.8
2019-01-08T00:40:36.593Z,2.79
2019-01-08T00:40:40.777Z,2.79
2019-01-08T00:40:45.118Z,2.79
2019-01-08T00:40:49.411Z,2.79
2019-01-08T00:40:53.748Z,2.79
2019-01-08T00:40:58.033Z,2.78
2019-01-08T00:41:02.327Z,2.79
2019-01-08T00:41:06.613Z,2.79
2019-01-08T00:41:10.900Z,2.8
2019-01-08T00:41:15.194Z,2.79
2019-01-08T00:41:19.496Z,2.78
2019-01-08T00:41:23.689Z,2.78
2019-01-08T00:41:27.980Z,2.79
2019-01-08T00:41:32.269Z,2.79
2019-01-08T00:41:36.572Z,2.79
2019-01-08T00:41:40.769Z,2.78
2019-01-08T00:41:45.064Z,2.79
2019-01-08T00:41:49.351Z,2.78
2019-01-08T00:41:53.643Z,2.79
2019-01-08T00:41:57.932Z,2.79
2019-01-08T00:42:02.271Z,2.79
2019-01-08T00:42:06.569Z,2.78
2019-01-08T00:42:10.952Z,2.77
2019-01-08T00:42:15.240Z,2.77
2019-01-08T00:42:19.535Z,2.77
2019-01-08T00:42:23.822Z,2.78
2019-01-08T00:42:28.110Z,2.77
2019-01-08T00:42:32.400Z,2.78
2019-01-08T00:42:36.783Z,2.77
2019-01-08T00:42:40.970Z,2.77
2019-01-08T00:42:45.335Z,2.78
2019-01-08T00:42:49.639Z,2.77
2019-01-08T00:42:54.009Z,2.77
2019-01-08T00:42:58.310Z,2.76
2019-01-08T00:43:02.622Z,2.78
2019-01-08T00:43:06.927Z,2.76
2019-01-08T00:43:11.229Z,2.75
2019-01-08T00:43:15.428Z,2.76
2019-01-08T00:43:19.617Z,2.75
2019-01-08T00:43:23.911Z,2.75
2019-01-08T00:43:28.200Z,2.74
2019-01-08T00:43:32.533Z,2.75
2019-01-08T00:43:36.829Z,2.74
2019-01-08T00:43:41.116Z,2.74
2019-01-08T00:43:45.312Z,2.74
2019-01-08T00:43:49.616Z,2.74
2019-01-08T00:43:53.991Z,2.73
2019-01-08T00:43:58.277Z,2.73
2019-01-08T00:44:02.720Z,2.73
2019-01-08T00:44:07.030Z,2.74
2019-01-08T00:44:11.322Z,2.73
2019-01-08T00:44:15.614Z,2.74
2019-01-08T00:44:19.902Z,2.73
2019-01-08T00:44:24.203Z,2.73
2019-01-08T00:44:28.501Z,2.73
2019-01-08T00:44:32.800Z,2.73
2019-01-08T00:44:36.987Z,2.73
2019-01-08T00:44:41.274Z,2.73
2019-01-08T00:44:45.569Z,2.73
2019-01-08T00:44:49.862Z,2.74
2019-01-08T00:44:54.154Z,2.73
2019-01-08T00:44:58.449Z,2.74
2019-01-08T00:45:02.745Z,2.73
2019-01-08T00:45:07.037Z,2.73
2019-01-08T00:45:11.329Z,2.73
2019-01-08T00:45:15.625Z,2.73
2019-01-08T00:45:19.832Z,2.74
2019-01-08T00:45:24.119Z,2.73
2019-01-08T00:45:28.309Z,2.73
2019-01-08T00:45:32.601Z,2.74
2019-01-08T00:45:36.793Z,2.73
2019-01-08T00:45:41.089Z,2.73
2019-01-08T00:45:45.379Z,2.74
2019-01-08T00:45:49.673Z,2.74
2019-01-08T00:45:53.967Z,2.75
2019-01-08T00:45:58.251Z,2.73
2019-01-08T00:46:02.541Z,2.73
2019-01-08T00:46:06.833Z,2.74
2019-01-08T00:46:11.035Z,2.74
2019-01-08T00:46:15.331Z,2.74
2019-01-08T00:46:19.637Z,2.75
2019-01-08T00:46:23.933Z,2.74
2019-01-08T00:46:28.221Z,2.74
2019-01-08T00:46:32.518Z,2.74
2019-01-08T00:46:36.810Z,2.75
2019-01-08T00:46:41.106Z,2.74
2019-01-08T00:46:45.399Z,2.75
2019-01-08T00:46:49.689Z,2.75
2019-01-08T00:46:53.980Z,2.74
2019-01-08T00:46:58.271Z,2.75
2019-01-08T00:47:02.565Z,2.74
2019-01-08T00:47:06.574Z,2.74
2019-01-08T00:47:10.867Z,2.74
2019-01-08T00:47:15.171Z,2.74
2019-01-08T00:47:19.477Z,2.75
2019-01-08T00:47:23.803Z,2.74
2019-01-08T00:47:28.088Z,2.73
2019-01-08T00:47:32.376Z,2.74
2019-01-08T00:47:36.663Z,2.74
2019-01-08T00:47:40.952Z,2.74
2019-01-08T00:47:45.144Z,2.74
2019-01-08T00:47:49.334Z,2.74
2019-01-08T00:47:53.619Z,2.74
2019-01-08T00:47:57.906Z,2.74
2019-01-08T00:48:02.241Z,2.73
2019-01-08T00:48:06.538Z,2.73
2019-01-08T00:48:10.839Z,2.73
2019-01-08T00:48:15.125Z,2.73
2019-01-08T00:48:19.412Z,2.73
2019-01-08T00:48:23.699Z,2.71
2019-01-08T00:48:27.897Z,2.73
2019-01-08T00:48:32.182Z,2.71
2019-01-08T00:48:36.476Z,2.7
2019-01-08T00:48:40.766Z,2.71
2019-01-08T00:48:45.069Z,2.7
2019-01-08T00:48:49.362Z,2.69
2019-01-08T00:48:53.558Z,2.7
2019-01-08T00:48:57.798Z,2.69
2019-01-08T00:49:02.155Z,2.7
2019-01-08T00:49:06.459Z,2.69
2019-01-08T00:49:10.753Z,2.69
2019-01-08T00:49:14.942Z,2.69
2019-01-08T00:49:19.233Z,2.67
2019-01-08T00:49:23.428Z,2.68
2019-01-08T00:49:27.731Z,2.67
2019-01-08T00:49:32.029Z,2.68
2019-01-08T00:49:36.326Z,2.67
2019-01-08T00:49:40.616Z,2.67
2019-01-08T00:49:44.911Z,2.68
2019-01-08T00:49:49.233Z,2.68
2019-01-08T00:49:53.430Z,2.66
2019-01-08T00:49:57.723Z,2.67
2019-01-08T00:50:01.923Z,2.67
2019-01-08T00:50:06.222Z,2.67
2019-01-08T00:50:10.511Z,2.66
2019-01-08T00:50:14.806Z,2.67
2019-01-08T00:50:19.102Z,2.66
2019-01-08T00:50:23.394Z,2.65
2019-01-08T00:50:27.699Z,2.65
2019-01-08T00:50:31.888Z,2.65
2019-01-08T00:50:36.080Z,2.65
2019-01-08T00:50:40.372Z,2.65
2019-01-08T00:50:44.659Z,2.66
2019-01-08T00:50:48.950Z,2.65
2019-01-08T00:50:53.236Z,2.64
2019-01-08T00:50:57.524Z,2.64
2019-01-08T00:51:01.819Z,2.64
2019-01-08T00:51:06.265Z,2.64
2019-01-08T00:51:10.578Z,2.64
2019-01-08T00:51:14.781Z,2.64
2019-01-08T00:51:19.086Z,2.64
2019-01-08T00:51:23.388Z,2.64
2019-01-08T00:51:27.595Z,2.64
2019-01-08T00:51:31.892Z,2.63
2019-01-08T00:51:36.187Z,2.63
2019-01-08T00:51:40.478Z,2.63
2019-01-08T00:51:44.671Z,2.64
2019-01-08T00:51:48.966Z,2.64
2019-01-08T00:51:53.257Z,2.63
2019-01-08T00:51:57.554Z,2.63
2019-01-08T00:52:01.850Z,2.63
2019-01-08T00:52:06.046Z,2.63
2019-01-08T00:52:10.143Z,2.63
2019-01-08T00:52:14.440Z,2.64
2019-01-08T00:52:18.734Z,2.63
2019-01-08T00:52:22.943Z,2.63
2019-01-08T00:52:27.137Z,2.63
2019-01-08T00:52:31.418Z,2.64
2019-01-08T00:52:35.718Z,2.62
2019-01-08T00:52:40.085Z,2.62
2019-01-08T00:52:44.371Z,2.62
2019-01-08T00:52:48.656Z,2.61
2019-01-08T00:52:52.851Z,2.63
2019-01-08T00:52:57.042Z,2.62
2019-01-08T00:53:01.336Z,2.62
2019-01-08T00:53:05.630Z,2.62
2019-01-08T00:53:10.011Z,2.61
2019-01-08T00:53:14.302Z,2.62
2019-01-08T00:53:18.600Z,2.62
2019-01-08T00:53:22.795Z,2.61
2019-01-08T00:53:27.182Z,2.6
2019-01-08T00:53:31.473Z,2.6
2019-01-08T00:53:35.759Z,2.6
2019-01-08T00:53:40.066Z,2.6
2019-01-08T00:53:44.260Z,2.6
2019-01-08T00:53:48.546Z,2.6
2019-01-08T00:53:52.832Z,2.58
2019-01-08T00:53:57.028Z,2.57
2019-01-08T00:54:01.332Z,2.58
2019-01-08T00:54:05.675Z,2.57
2019-01-08T00:54:09.871Z,2.57
2019-01-08T00:54:14.065Z,2.57
2019-01-08T00:54:18.350Z,2.57
2019-01-08T00:54:22.642Z,2.57
2019-01-08T00:54:26.842Z,2.57
2019-01-08T00:54:31.133Z,2.57
2019-01-08T00:54:35.425Z,2.57
2019-01-08T00:54:39.618Z,2.56
2019-01-08T00:54:45.620Z,2.57
2019-01-08T00:54:49.888Z,2.56
2019-01-08T00:54:54.086Z,2.57
2019-01-08T00:54:58.372Z,2.56
2019-01-08T00:55:02.670Z,2.56
2019-01-08T00:55:06.880Z,2.57
2019-01-08T00:55:10.881Z,2.56
2019-01-08T00:55:15.177Z,2.57
2019-01-08T00:55:19.470Z,2.56
2019-01-08T00:55:23.766Z,2.56
2019-01-08T00:55:27.961Z,2.56
2019-01-08T00:55:32.164Z,2.55
2019-01-08T00:55:36.505Z,2.55
2019-01-08T00:55:40.861Z,2.55
2019-01-08T00:55:45.065Z,2.55
2019-01-08T00:55:49.360Z,2.55
2019-01-08T00:55:53.649Z,2.55
2019-01-08T00:55:57.947Z,2.53
2019-01-08T00:56:02.242Z,2.54
2019-01-08T00:56:06.530Z,2.54
2019-01-08T00:56:10.733Z,2.54
2019-01-08T00:56:15.127Z,2.54
2019-01-08T00:56:19.423Z,2.53
2019-01-08T00:56:23.783Z,2.54
2019-01-08T00:57:04.767Z,2.52
2019-01-08T00:57:08.960Z,2.51
2019-01-08T00:57:13.251Z,2.53
2019-01-08T00:57:17.546Z,2.52
2019-01-08T00:57:21.842Z,2.51
2019-01-08T00:57:26.041Z,2.52
2019-01-08T00:57:30.421Z,2.52
2019-01-08T00:57:34.710Z,2.51
2019-01-08T00:57:38.909Z,2.51
2019-01-08T00:57:43.202Z,2.51
2019-01-08T00:57:47.397Z,2.51
2019-01-08T00:57:51.747Z,2.51
2019-01-08T00:57:55.943Z,2.51